Time;durP1;ratioP1;P1;durP2;ratioP2;P2;SDS_P1;SDS_P2;PMS_P1;PMS_P2;Temp;Humidity;BMP_temperature;BMP_pressure;BME280_temperature;BME280_humidity;BME280_pressure;Samples;Min_cycle;Max_cycle;Signal;HPM_P1;HPM_P2
2023/06/19 00:01:32;;;;;;;8.90;7.90;;;;;;;13.34;91.44;97640.03;6237980;28;20250;-42
2023/06/19 00:04:34;;;;;;;8.60;7.57;;;;;;;13.33;91.26;97644.56;6240389;28;20698;-41
2023/06/19 00:07:37;;;;;;;7.90;7.20;;;;;;;13.13;91.47;97612.34;6241667;28;20258;-41
2023/06/19 00:10:39;;;;;;;8.03;7.23;;;;;;;13.28;91.56;97643.75;6225458;28;20247;-41
2023/06/19 00:13:41;;;;;;;7.97;7.17;;;;;;;13.26;92.14;97646.69;6241348;28;20817;-40
2023/06/19 00:16:44;;;;;;;10.87;7.37;;;;;;;13.24;91.75;97640.78;6240198;28;20236;-41
2023/06/19 00:19:48;;;;;;;9.03;7.93;;;;;;;13.22;92.19;97637.56;6236694;28;20285;-41
2023/06/19 00:22:51;;;;;;;8.97;7.37;;;;;;;13.20;92.03;97636.16;6239729;28;20262;-41
2023/06/19 00:25:53;;;;;;;9.70;7.50;;;;;;;13.15;92.09;97635.09;6242509;28;20614;-41
2023/06/19 00:28:56;;;;;;;8.83;7.77;;;;;;;13.13;92.38;97642.56;6237846;28;20233;-40
2023/06/19 00:31:59;;;;;;;8.47;7.67;;;;;;;13.12;92.48;97635.59;6238073;28;20232;-41
2023/06/19 00:35:02;;;;;;;8.33;6.93;;;;;;;13.10;92.33;97639.59;6220386;28;20239;-42
2023/06/19 00:38:05;;;;;;;10.47;7.37;;;;;;;12.92;92.49;97616.78;6245704;28;20301;-41
2023/06/19 00:41:08;;;;;;;8.43;7.63;;;;;;;13.02;92.83;97648.13;6237747;28;20695;-41
2023/06/19 00:44:10;;;;;;;10.27;7.50;;;;;;;13.01;92.83;97641.16;6242822;28;20688;-42
2023/06/19 00:47:12;;;;;;;9.20;7.53;;;;;;;12.97;92.90;97640.06;6236681;28;20727;-41
2023/06/19 00:50:15;;;;;;;8.63;7.70;;;;;;;12.99;92.91;97638.72;6238884;28;20231;-41
2023/06/19 00:53:19;;;;;;;8.60;7.80;;;;;;;12.98;92.52;97636.31;6220961;28;20718;-40
2023/06/19 00:56:21;;;;;;;7.60;6.90;;;;;;;12.88;92.70;97627.16;6207419;28;20609;-42
2023/06/19 00:59:25;;;;;;;8.70;7.03;;;;;;;12.91;92.69;97634.69;6224889;28;20763;-41
2023/06/19 01:02:27;;;;;;;9.57;7.17;;;;;;;12.83;93.34;97629.00;6238848;28;20231;-41
2023/06/19 01:05:30;;;;;;;8.43;7.67;;;;;;;12.83;93.45;97637.03;6223585;28;20230;-41
2023/06/19 01:08:43;;;;;;;11.23;7.60;;;;;;;12.86;93.07;97633.84;6222708;28;20239;-41
2023/06/19 01:11:56;;;;;;;7.80;6.97;;;;;;;12.64;93.00;97596.53;6234775;28;20315;-43
2023/06/19 01:15:02;;;;;;;10.40;7.47;;;;;;;12.85;93.11;97635.69;6234298;28;20633;-43
2023/06/19 01:18:05;;;;;;;8.30;7.40;;;;;;;12.72;93.12;97617.44;6219085;28;20236;-41
2023/06/19 01:21:18;;;;;;;9.87;8.03;;;;;;;12.80;93.16;97640.19;6206309;28;20620;-41
2023/06/19 01:24:21;;;;;;;8.20;7.40;;;;;;;12.76;93.00;97637.25;6241084;28;21715;-41
2023/06/19 01:27:31;;;;;;;9.27;6.97;;;;;;;12.76;92.95;97636.44;6238745;28;20237;-41
2023/06/19 01:30:34;;;;;;;9.27;8.30;;;;;;;12.55;93.37;97617.56;6227423;28;20285;-41
2023/06/19 01:33:39;;;;;;;7.97;7.17;;;;;;;12.70;93.71;97629.44;6241557;28;20727;-42
2023/06/19 01:36:43;;;;;;;7.80;6.47;;;;;;;12.62;93.64;97617.38;6241525;28;20611;-41
2023/06/19 01:39:46;;;;;;;8.93;8.03;;;;;;;12.71;93.04;97623.03;6216357;28;20234;-42
2023/06/19 01:42:49;;;;;;;7.93;7.00;;;;;;;12.67;93.35;97620.09;6244644;28;20508;-42
2023/06/19 01:45:52;;;;;;;10.83;7.23;;;;;;;12.63;93.15;97624.31;6245072;28;20223;-42
2023/06/19 01:48:54;;;;;;;9.17;6.60;;;;;;;12.61;93.46;97621.09;6226776;28;20285;-42
2023/06/19 01:52:00;;;;;;;8.33;7.50;;;;;;;12.50;93.40;97606.84;6224196;28;20307;-41
2023/06/19 01:55:04;;;;;;;8.60;7.73;;;;;;;12.61;93.14;97623.75;6242825;28;20231;-41
2023/06/19 01:58:07;;;;;;;8.57;7.43;;;;;;;12.57;93.42;97614.66;6245541;28;20276;-41
2023/06/19 02:01:09;;;;;;;8.43;7.00;;;;;;;12.49;93.56;97623.94;6227383;28;20701;-43
2023/06/19 02:04:12;;;;;;;10.30;7.20;;;;;;;12.48;93.68;97621.53;6243968;28;20231;-42
2023/06/19 02:07:14;;;;;;;8.90;7.73;;;;;;;12.45;93.26;97617.50;6244189;28;20233;-41
2023/06/19 02:10:16;;;;;;;9.20;7.27;;;;;;;12.42;93.62;97610.00;6244197;28;20252;-43
2023/06/19 02:13:19;;;;;;;11.40;7.97;;;;;;;12.37;93.58;97605.44;6220707;28;20233;-42
2023/06/19 02:16:21;;;;;;;12.57;7.87;;;;;;;12.40;93.79;97612.13;6209050;28;20274;-41
2023/06/19 02:19:23;;;;;;;8.30;7.43;;;;;;;12.40;93.75;97618.25;6242159;28;20238;-42
2023/06/19 02:22:25;;;;;;;8.27;7.47;;;;;;;12.35;93.42;97617.41;6243111;28;20259;-42
2023/06/19 02:25:28;;;;;;;8.60;6.93;;;;;;;12.35;93.98;97625.44;6243106;28;20239;-44
2023/06/19 02:28:30;;;;;;;9.40;7.17;;;;;;;11.69;93.33;97516.16;6215501;28;21338;-41
2023/06/19 02:31:32;;;;;;;9.70;7.53;;;;;;;12.34;93.46;97624.63;6205626;28;20227;-40
2023/06/19 02:34:35;;;;;;;10.53;7.70;;;;;;;12.29;93.63;97618.44;6242621;28;20609;-41
2023/06/19 02:37:39;;;;;;;10.93;7.40;;;;;;;12.29;93.66;97619.25;6243563;28;20234;-42
2023/06/19 02:40:41;;;;;;;7.50;6.80;;;;;;;12.32;94.01;97618.75;6208763;28;20254;-41
2023/06/19 02:43:48;;;;;;;10.37;7.33;;;;;;;12.30;93.68;97612.84;6225622;28;20326;-41
2023/06/19 02:46:50;;;;;;;10.53;7.43;;;;;;;12.31;93.74;97614.44;6240648;28;20326;-43
2023/06/19 02:49:52;;;;;;;9.90;7.93;;;;;;;12.01;93.68;97580.25;6243680;28;20234;-41
2023/06/19 02:52:55;;;;;;;9.13;7.37;;;;;;;12.07;93.83;97589.94;6242983;28;20241;-41
2023/06/19 02:55:57;;;;;;;7.87;7.07;;;;;;;12.20;93.78;97612.75;6220133;28;20353;-41
2023/06/19 02:58:59;;;;;;;9.73;6.97;;;;;;;12.18;94.03;97614.88;6240854;28;20230;-40
2023/06/19 03:02:04;;;;;;;7.77;6.97;;;;;;;12.20;94.28;97611.94;6242179;28;20239;-41
2023/06/19 03:05:06;;;;;;;8.17;7.37;;;;;;;12.22;94.32;97620.53;6231590;28;20239;-41
2023/06/19 03:08:08;;;;;;;9.67;7.53;;;;;;;12.23;94.22;97624.81;6207708;28;20227;-42
2023/06/19 03:11:11;;;;;;;8.20;7.40;;;;;;;12.22;94.14;97618.66;6204952;28;20727;-41
2023/06/19 03:14:13;;;;;;;8.00;6.97;;;;;;;12.23;94.11;97614.13;6240802;28;20736;-42
2023/06/19 03:17:15;;;;;;;8.03;6.90;;;;;;;12.27;93.82;97631.25;6220158;28;20242;-42
2023/06/19 03:20:17;;;;;;;7.53;6.77;;;;;;;12.31;94.02;97627.00;6216402;28;20235;-41
2023/06/19 03:23:28;;;;;;;10.77;7.50;;;;;;;12.34;93.97;97629.97;6205988;28;20266;-45
2023/06/19 03:26:31;;;;;;;7.10;6.40;;;;;;;12.33;93.91;97625.69;6226341;28;20277;-41
2023/06/19 03:29:36;;;;;;;8.10;7.00;;;;;;;12.34;93.69;97637.97;6241405;28;20235;-40
2023/06/19 03:32:41;;;;;;;8.00;7.10;;;;;;;12.35;93.38;97628.09;6241581;28;20296;-42
2023/06/19 03:35:50;;;;;;;8.00;7.20;;;;;;;12.35;93.51;97660.97;6239465;28;20563;-41
2023/06/19 03:39:12;;;;;;;8.70;6.57;;;;;;;12.37;93.60;97634.00;6235282;28;20306;-41
2023/06/19 03:42:16;;;;;;;8.33;6.50;;;;;;;12.39;93.65;97632.69;6236855;28;20255;-41
2023/06/19 03:45:18;;;;;;;7.67;6.73;;;;;;;12.43;93.31;97638.31;6232998;28;20346;-41
2023/06/19 03:48:21;;;;;;;7.37;6.67;;;;;;;12.18;93.49;97595.38;6223407;28;20369;-41
2023/06/19 03:51:23;;;;;;;6.93;6.33;;;;;;;12.26;93.35;97605.56;6225915;28;20231;-41
2023/06/19 03:54:26;;;;;;;8.27;6.83;;;;;;;12.47;93.54;97631.41;6220587;28;20231;-40
2023/06/19 03:57:28;;;;;;;7.00;6.30;;;;;;;12.45;93.14;97628.19;6160723;28;1305402;-41
2023/06/19 04:00:31;;;;;;;8.27;6.67;;;;;;;12.43;93.52;97627.63;6241915;28;20234;-41
2023/06/19 04:03:33;;;;;;;9.90;7.30;;;;;;;12.18;94.23;97598.06;6222390;28;20230;-42
2023/06/19 04:06:36;;;;;;;7.43;6.73;;;;;;;12.37;94.78;97637.50;6242392;28;20575;-43
2023/06/19 04:09:40;;;;;;;8.20;6.90;;;;;;;12.30;95.54;97631.53;6203176;28;20248;-39
2023/06/19 04:12:45;;;;;;;7.73;7.03;;;;;;;12.41;95.56;97637.75;6221508;28;20241;-42
2023/06/19 04:15:47;;;;;;;9.00;8.10;;;;;;;12.35;95.48;97622.75;6238244;28;20231;-43
2023/06/19 04:18:52;;;;;;;8.03;7.23;;;;;;;12.36;95.39;97630.53;6206767;28;20224;-42
2023/06/19 04:21:54;;;;;;;8.07;6.87;;;;;;;12.53;95.49;97651.78;6240597;28;20237;-43
2023/06/19 04:24:56;;;;;;;7.53;6.83;;;;;;;12.61;95.37;97653.16;6218982;28;20897;-46
2023/06/19 04:27:59;;;;;;;7.47;6.67;;;;;;;12.66;95.08;97645.19;6236170;28;20235;-42
2023/06/19 04:31:01;;;;;;;7.03;6.40;;;;;;;12.71;94.88;97655.09;6240310;28;20250;-42
2023/06/19 04:34:04;;;;;;;7.70;6.97;;;;;;;12.76;95.23;97655.13;6241266;28;20266;-43
2023/06/19 04:37:07;;;;;;;6.97;6.37;;;;;;;12.80;95.32;97666.94;6245477;28;20232;-43
2023/06/19 04:40:10;;;;;;;7.97;7.17;;;;;;;12.83;95.06;97659.22;6243390;28;20215;-43
2023/06/19 04:43:13;;;;;;;8.03;7.30;;;;;;;12.86;94.81;97660.59;6233464;28;20224;-44
2023/06/19 04:46:20;;;;;;;9.00;8.10;;;;;;;12.84;94.79;97657.34;6238914;28;20239;-42
2023/06/19 04:49:22;;;;;;;8.87;7.50;;;;;;;12.70;94.70;97624.09;6238975;28;20238;-42
2023/06/19 04:52:25;;;;;;;9.23;8.33;;;;;;;12.74;95.03;97634.03;6238731;28;20243;-43
2023/06/19 04:55:28;;;;;;;8.40;7.17;;;;;;;12.89;95.10;97652.03;6242275;28;20243;-42
2023/06/19 04:58:30;;;;;;;9.07;8.17;;;;;;;12.95;94.78;97652.88;6238290;28;20243;-42
2023/06/19 05:01:32;;;;;;;8.87;8.03;;;;;;;13.07;95.11;97666.88;6238170;28;20264;-43
2023/06/19 05:04:35;;;;;;;7.80;7.10;;;;;;;13.12;95.02;97664.22;6238096;28;20219;-44
2023/06/19 05:07:37;;;;;;;7.63;6.93;;;;;;;13.18;94.90;97658.63;6202700;28;20223;-43
2023/06/19 05:10:39;;;;;;;9.07;8.17;;;;;;;13.24;95.21;97662.16;6235762;28;20227;-43
2023/06/19 05:13:41;;;;;;;8.83;8.03;;;;;;;12.43;94.49;97528.00;6239564;28;20712;-42
2023/06/19 05:16:44;;;;;;;10.37;8.03;;;;;;;13.35;94.88;97665.75;6232056;28;20257;-42
2023/06/19 05:19:46;;;;;;;8.30;7.50;;;;;;;13.43;95.11;97665.22;6238196;28;20233;-42
2023/06/19 05:22:48;;;;;;;8.30;7.50;;;;;;;13.36;95.05;97648.59;6235937;28;20329;-42
2023/06/19 05:25:50;;;;;;;7.70;7.00;;;;;;;13.61;94.79;97677.34;6236878;28;20245;-42
2023/06/19 05:28:53;;;;;;;7.33;6.60;;;;;;;13.68;94.96;97673.34;6239915;28;20620;-42
2023/06/19 05:31:55;;;;;;;7.00;6.30;;;;;;;13.78;94.97;97685.19;6238983;28;20239;-42
2023/06/19 05:34:57;;;;;;;7.47;6.77;;;;;;;13.87;94.84;97678.25;6239310;28;20236;-44
2023/06/19 05:37:59;;;;;;;7.23;6.57;;;;;;;13.95;94.66;97680.44;6237850;28;20793;-47
2023/06/19 05:41:02;;;;;;;8.83;7.87;;;;;;;14.08;94.84;97679.13;6239137;28;20765;-43
2023/06/19 05:44:05;;;;;;;8.00;7.27;;;;;;;14.18;94.78;97679.94;6239723;28;20254;-43
2023/06/19 05:47:07;;;;;;;8.60;7.80;;;;;;;14.20;94.66;97666.28;6237637;28;20234;-43
2023/06/19 05:50:09;;;;;;;9.93;8.30;;;;;;;14.43;94.30;97678.38;6221809;28;20369;-42
2023/06/19 05:53:12;;;;;;;8.27;7.47;;;;;;;14.56;94.41;97680.56;6238817;28;20324;-43
2023/06/19 05:56:16;;;;;;;7.27;6.67;;;;;;;14.70;94.41;97678.97;6237190;28;20736;-43
2023/06/19 05:59:18;;;;;;;7.17;6.47;;;;;;;14.85;94.55;97683.53;6239610;28;20807;-42
2023/06/19 06:02:21;;;;;;;7.40;6.70;;;;;;;14.89;94.26;97667.69;6239710;28;20227;-43
2023/06/19 06:05:24;;;;;;;7.30;6.60;;;;;;;15.00;94.16;97658.56;6222371;28;20266;-43
2023/06/19 06:08:26;;;;;;;8.50;7.60;;;;;;;15.32;93.92;97686.94;6237328;28;20617;-43
2023/06/19 06:11:28;;;;;;;7.50;6.80;;;;;;;15.05;93.74;97610.25;6236313;28;20601;-43
2023/06/19 06:14:31;;;;;;;8.33;7.57;;;;;;;15.66;93.61;97690.66;6237689;28;20219;-42
2023/06/19 06:17:33;;;;;;;7.93;6.83;;;;;;;15.88;93.17;97695.66;6232758;28;20608;-45
2023/06/19 06:20:35;;;;;;;8.43;7.63;;;;;;;16.09;93.07;97690.19;6237503;28;20807;-43
2023/06/19 06:23:37;;;;;;;7.50;6.83;;;;;;;16.10;92.43;97656.84;6242551;28;20745;-43
2023/06/19 06:26:40;;;;;;;8.47;7.37;;;;;;;16.58;91.99;97698.22;6243455;28;20322;-44
2023/06/19 06:29:43;;;;;;;8.30;7.57;;;;;;;16.83;91.03;97702.63;6242551;28;20235;-45
2023/06/19 06:32:46;;;;;;;8.20;7.50;;;;;;;17.14;90.08;97697.81;6209117;28;20792;-44
2023/06/19 06:35:48;;;;;;;7.87;7.17;;;;;;;17.39;88.80;97709.38;6241551;28;20238;-43
2023/06/19 06:38:50;;;;;;;8.83;7.73;;;;;;;17.65;88.41;97704.53;6244010;28;20254;-45
2023/06/19 06:41:53;;;;;;;10.97;7.70;;;;;;;17.93;86.64;97711.78;6242075;28;20230;-43
2023/06/19 06:44:55;;;;;;;7.83;7.00;;;;;;;18.13;85.49;97709.91;6240969;28;20235;-43
2023/06/19 06:47:58;;;;;;;8.47;7.00;;;;;;;18.34;84.15;97707.75;6239058;28;20231;-43
2023/06/19 06:51:01;;;;;;;6.83;6.17;;;;;;;18.54;83.43;97710.16;6244598;28;20231;-45
2023/06/19 06:54:03;;;;;;;7.80;7.00;;;;;;;18.69;82.11;97707.25;6243587;28;20315;-46
2023/06/19 06:57:05;;;;;;;7.07;6.37;;;;;;;18.89;81.28;97713.44;6242992;28;20235;-45
2023/06/19 07:00:11;;;;;;;6.90;6.27;;;;;;;19.02;81.66;97713.47;6220299;28;20253;-43
2023/06/19 07:03:13;;;;;;;7.43;6.27;;;;;;;19.18;80.99;97716.72;6241382;28;20698;-44
2023/06/19 07:06:15;;;;;;;8.00;7.23;;;;;;;19.33;80.53;97718.34;6238678;28;20265;-44
2023/06/19 07:09:18;;;;;;;7.90;7.07;;;;;;;19.47;79.35;97718.38;6241894;28;20591;-43
2023/06/19 07:12:20;;;;;;;8.17;7.20;;;;;;;19.59;78.78;97729.47;6243207;28;24992;-43
2023/06/19 07:15:22;;;;;;;8.17;7.37;;;;;;;19.73;77.63;97721.41;6241696;28;20238;-43
2023/06/19 07:18:24;;;;;;;8.10;7.30;;;;;;;19.86;77.14;97722.53;6238517;28;20219;-43
2023/06/19 07:21:28;;;;;;;7.23;6.53;;;;;;;19.96;76.44;97727.72;6240367;28;20727;-44
2023/06/19 07:24:30;;;;;;;6.53;6.03;;;;;;;20.03;76.23;97731.63;6246588;28;20286;-43
2023/06/19 07:27:33;;;;;;;7.07;6.37;;;;;;;20.13;76.13;97727.91;6247957;28;20230;-44
2023/06/19 07:30:35;;;;;;;9.93;6.73;;;;;;;20.21;74.54;97721.78;6209030;28;20228;-44
2023/06/19 07:33:37;;;;;;;7.57;6.87;;;;;;;20.37;73.74;97722.25;6240307;28;20536;-45
2023/06/19 07:36:39;;;;;;;8.33;7.53;;;;;;;20.46;74.18;97722.34;6239860;28;20242;-43
2023/06/19 07:39:44;;;;;;;7.10;6.47;;;;;;;20.48;73.72;97703.91;6240326;28;20774;-44
2023/06/19 07:42:46;;;;;;;8.03;7.33;;;;;;;20.63;73.43;97710.88;6236431;28;20916;-44
2023/06/19 07:45:49;;;;;;;8.97;7.13;;;;;;;20.63;71.85;97690.03;6241654;28;20249;-45
2023/06/19 07:48:51;;;;;;;7.63;6.90;;;;;;;20.89;70.49;97709.19;6241791;28;20226;-44
2023/06/19 07:51:53;;;;;;;9.83;6.77;;;;;;;20.85;71.36;97689.25;6239732;28;20223;-45
2023/06/19 07:54:57;;;;;;;8.27;7.47;;;;;;;21.08;70.28;97720.63;6236781;28;20235;-44
2023/06/19 07:58:00;;;;;;;7.77;6.97;;;;;;;21.19;69.91;97720.38;6223781;28;20235;-45
2023/06/19 08:01:02;;;;;;;8.07;6.57;;;;;;;21.30;68.88;97725.25;6240424;28;20709;-44
2023/06/19 08:04:06;;;;;;;7.33;6.27;;;;;;;21.41;69.08;97724.97;6243005;28;20285;-45
2023/06/19 08:07:08;;;;;;;8.83;7.80;;;;;;;21.31;66.68;97704.38;6239689;28;20222;-46
2023/06/19 08:10:11;;;;;;;12.03;8.80;;;;;;;21.72;61.53;97730.38;6221473;28;20925;-45
2023/06/19 08:13:16;;;;;;;8.13;7.13;;;;;;;21.90;64.63;97734.75;6234714;28;20224;-44
2023/06/19 08:16:18;;;;;;;7.53;6.67;;;;;;;21.95;65.03;97736.53;6238388;28;20649;-44
2023/06/19 08:19:20;;;;;;;8.37;7.30;;;;;;;22.06;65.75;97737.84;6239569;28;20764;-46
2023/06/19 08:22:24;;;;;;;10.37;8.20;;;;;;;22.15;63.17;97733.25;6240189;28;20746;-45
2023/06/19 08:25:26;;;;;;;8.77;7.87;;;;;;;22.29;61.12;97712.22;6242967;28;20756;-44
2023/06/19 08:28:31;;;;;;;7.83;7.03;;;;;;;22.48;60.46;97720.06;6239026;28;20609;-45
2023/06/19 08:31:33;;;;;;;8.17;7.10;;;;;;;22.54;63.63;97731.56;6240054;28;20730;-46
2023/06/19 08:34:37;;;;;;;8.10;7.30;;;;;;;22.52;65.28;97722.97;6238635;28;20230;-44
2023/06/19 08:37:40;;;;;;;7.73;6.83;;;;;;;22.51;65.32;97737.63;6241150;28;20242;-45
2023/06/19 08:40:43;;;;;;;8.30;7.45;;;;;;;22.31;65.82;97706.47;6239249;28;20231;-44
2023/06/19 08:43:46;;;;;;;7.60;6.90;;;;;;;22.56;65.41;97745.63;6239769;28;20235;-44
2023/06/19 08:46:48;;;;;;;8.23;7.23;;;;;;;22.70;62.93;97748.97;6240661;28;20381;-45
2023/06/19 08:49:50;;;;;;;8.40;7.40;;;;;;;22.67;58.80;97706.97;6237285;28;20227;-45
2023/06/19 08:52:52;;;;;;;8.57;6.77;;;;;;;23.07;58.05;97744.88;6239199;28;20238;-45
2023/06/19 08:55:57;;;;;;;9.80;7.83;;;;;;;23.27;55.68;97759.69;6241045;28;20292;-44
2023/06/19 08:59:13;;;;;;;9.70;8.00;;;;;;;23.35;52.54;97741.75;6239943;28;20239;-44
2023/06/19 09:02:16;;;;;;;9.07;8.10;;;;;;;23.50;53.80;97754.06;6235604;28;20902;-46
2023/06/19 09:05:19;;;;;;;8.02;7.22;;;;;;;23.56;53.87;97759.00;6219693;28;20227;-45
2023/06/19 09:08:22;;;;;;;8.40;7.40;;;;;;;23.66;54.26;97753.22;6235734;28;20434;-44
2023/06/19 09:11:28;;;;;;;8.27;7.05;;;;;;;23.75;54.68;97755.13;6220202;28;20235;-46
2023/06/19 09:14:41;;;;;;;8.60;7.38;;;;;;;23.80;52.47;97753.03;6238812;28;20270;-45
2023/06/19 09:17:44;;;;;;;8.32;6.88;;;;;;;23.88;53.46;97759.53;6220614;28;20835;-46
2023/06/19 09:20:54;;;;;;;8.30;7.10;;;;;;;23.89;58.38;97761.13;6202293;28;20364;-46
2023/06/19 09:24:11;;;;;;;7.93;6.82;;;;;;;23.88;54.35;97752.16;6238706;28;20227;-45
2023/06/19 09:27:18;;;;;;;7.63;6.65;;;;;;;23.96;54.11;97755.19;6217268;28;20246;-45
2023/06/19 09:30:21;;;;;;;7.13;6.43;;;;;;;24.01;55.59;97744.13;6240876;28;20353;-45
2023/06/19 09:33:29;;;;;;;7.13;6.53;;;;;;;24.00;59.64;97751.50;6219670;28;20353;-46
2023/06/19 09:36:34;;;;;;;7.47;6.78;;;;;;;24.07;54.58;97740.88;6240503;28;20236;-45
2023/06/19 09:39:38;;;;;;;8.65;7.72;;;;;;;24.19;49.48;97760.03;6200497;28;20262;-46
2023/06/19 09:42:45;;;;;;;7.10;6.40;;;;;;;24.22;50.33;97747.69;6219565;28;20227;-46
2023/06/19 09:45:58;;;;;;;8.68;6.65;;;;;;;24.23;54.99;97759.38;6204970;28;20246;-47
2023/06/19 09:49:06;;;;;;;7.30;6.63;;;;;;;24.24;58.73;97761.78;6219015;28;20258;-45
2023/06/19 09:52:08;;;;;;;7.13;6.50;;;;;;;24.18;56.73;97752.97;6238338;28;20235;-46
2023/06/19 09:55:14;;;;;;;7.13;6.50;;;;;;;24.24;55.35;97756.34;6238670;28;20239;-45
2023/06/19 09:58:20;;;;;;;8.57;6.75;;;;;;;24.16;56.16;97738.91;6238353;28;20322;-45
2023/06/19 10:01:24;;;;;;;10.13;7.20;;;;;;;24.54;50.08;97754.41;6243368;28;20239;-46
2023/06/19 10:04:26;;;;;;;9.07;6.97;;;;;;;24.76;48.62;97750.56;6240628;28;20369;-48
2023/06/19 10:07:34;;;;;;;9.55;6.68;;;;;;;24.92;47.20;97748.81;6242761;28;20246;-46
2023/06/19 10:10:47;;;;;;;9.40;7.32;;;;;;;25.03;50.60;97751.94;6244732;28;20235;-45
2023/06/19 10:13:49;;;;;;;7.32;6.55;;;;;;;25.04;46.67;97747.28;6244816;28;20231;-45
2023/06/19 10:16:51;;;;;;;8.02;7.22;;;;;;;25.05;44.55;97751.59;6241935;28;20248;-46
2023/06/19 10:19:54;;;;;;;7.63;6.93;;;;;;;25.11;45.43;97755.72;6240620;28;20242;-47
2023/06/19 10:23:18;;;;;;;7.45;6.60;;;;;;;25.16;45.32;97747.34;6226034;28;20246;-45
2023/06/19 10:26:33;;;;;;;7.40;6.70;;;;;;;25.12;45.67;97752.69;6240024;28;20315;-47
2023/06/19 10:29:39;;;;;;;10.00;6.95;;;;;;;25.28;45.42;97758.31;6242916;28;20223;-44
2023/06/19 10:32:49;;;;;;;10.98;6.93;;;;;;;25.23;44.93;97755.00;6236353;28;20235;-43
2023/06/19 10:35:52;;;;;;;8.27;6.85;;;;;;;24.98;45.17;97718.66;6243091;28;20238;-44
2023/06/19 10:38:55;;;;;;;8.75;7.15;;;;;;;25.41;45.67;97751.75;6240648;28;20365;-45
2023/06/19 10:41:57;;;;;;;7.18;6.43;;;;;;;25.38;44.02;97744.25;6223315;28;20685;-45
2023/06/19 10:45:06;;;;;;;8.93;7.10;;;;;;;25.32;44.70;97755.69;6245198;28;20266;-45
2023/06/19 10:48:09;;;;;;;7.88;6.57;;;;;;;25.38;46.50;97749.69;6238113;28;20374;-46
2023/06/19 10:51:11;;;;;;;8.27;6.80;;;;;;;25.42;47.17;97750.63;6223757;28;20223;-46
2023/06/19 10:54:13;;;;;;;7.85;6.05;;;;;;;25.47;45.31;97750.41;6242311;28;20625;-47
2023/06/19 10:57:15;;;;;;;8.85;6.45;;;;;;;25.56;45.66;97744.03;6241072;28;20343;-46
2023/06/19 11:00:29;;;;;;;6.68;6.07;;;;;;;25.68;45.90;97749.53;6237877;28;20223;-46
2023/06/19 11:03:32;;;;;;;7.93;7.10;;;;;;;25.77;43.83;97746.75;6239408;28;20235;-45
2023/06/19 11:06:35;;;;;;;7.85;6.50;;;;;;;25.75;45.90;97741.59;6240961;28;20314;-46
2023/06/19 11:09:37;;;;;;;8.00;7.13;;;;;;;25.71;45.28;97741.47;6222123;28;20242;-47
2023/06/19 11:12:43;;;;;;;7.10;6.50;;;;;;;25.76;45.89;97736.94;6242551;28;20222;-45
2023/06/19 11:15:47;;;;;;;7.97;7.18;;;;;;;25.67;44.22;97746.00;6220934;28;20226;-46
2023/06/19 11:18:55;;;;;;;8.00;6.28;;;;;;;25.35;47.20;97709.47;6224546;28;20232;-46
2023/06/19 11:21:57;;;;;;;7.43;6.75;;;;;;;25.51;46.05;97741.53;6241925;28;20232;-45
2023/06/19 11:25:03;;;;;;;6.72;6.10;;;;;;;25.50;46.32;97739.94;6242296;28;20670;-46
2023/06/19 11:28:13;;;;;;;7.05;6.35;;;;;;;25.52;46.87;97741.22;6241273;28;20235;-45
2023/06/19 11:31:15;;;;;;;7.75;7.05;;;;;;;25.59;49.47;97743.38;6240969;28;20234;-46
2023/06/19 11:34:18;;;;;;;11.95;6.97;;;;;;;25.69;49.92;97737.47;6242120;28;20242;-45
2023/06/19 11:37:29;;;;;;;7.93;7.22;;;;;;;25.74;47.67;97746.25;6237894;28;20601;-45
2023/06/19 11:40:41;;;;;;;8.48;7.63;;;;;;;25.88;43.92;97734.22;6241810;28;20227;-48
2023/06/19 11:43:43;;;;;;;8.07;7.28;;;;;;;25.94;45.03;97730.94;6239505;28;20654;-45
2023/06/19 11:46:46;;;;;;;7.70;7.05;;;;;;;25.99;45.51;97727.97;6225837;28;20242;-46
2023/06/19 11:49:51;;;;;;;7.25;6.65;;;;;;;25.98;44.66;97731.84;6244360;28;20312;-46
2023/06/19 11:52:53;;;;;;;7.03;6.43;;;;;;;26.04;44.14;97726.16;6241032;28;20247;-45
2023/06/19 11:55:56;;;;;;;8.07;7.10;;;;;;;26.09;41.33;97718.53;6242041;28;20239;-46
2023/06/19 11:58:58;;;;;;;10.55;7.13;;;;;;;26.21;44.13;97720.47;6242110;28;20328;-46
2023/06/19 12:02:01;;;;;;;6.95;6.35;;;;;;;26.11;45.52;97723.66;6239351;28;20234;-46
2023/06/19 12:05:03;;;;;;;7.13;6.53;;;;;;;26.21;43.63;97725.94;6237554;28;20598;-45
2023/06/19 12:08:06;;;;;;;7.00;6.30;;;;;;;26.35;43.68;97720.09;6240799;28;20227;-45
2023/06/19 12:11:10;;;;;;;8.73;6.85;;;;;;;26.43;45.28;97720.00;6238201;28;20223;-46
2023/06/19 12:14:13;;;;;;;8.43;7.10;;;;;;;26.51;40.12;97721.00;6236321;28;20762;-46
2023/06/19 12:17:15;;;;;;;7.45;6.75;;;;;;;26.56;42.94;97714.50;6236941;28;20273;-46
2023/06/19 12:20:17;;;;;;;7.30;6.60;;;;;;;26.60;43.20;97715.38;6209357;28;20227;-47
2023/06/19 12:23:20;;;;;;;7.28;6.50;;;;;;;26.58;42.79;97695.81;6240610;28;20231;-46
2023/06/19 12:26:25;;;;;;;8.52;7.40;;;;;;;26.68;43.43;97704.31;6237888;28;20819;-48
2023/06/19 12:29:27;;;;;;;6.97;6.28;;;;;;;26.47;43.30;97671.72;6241808;28;21971;-47
2023/06/19 12:32:29;;;;;;;7.88;7.10;;;;;;;26.62;40.31;97689.31;6239363;28;20604;-45
2023/06/19 12:35:32;;;;;;;7.13;6.43;;;;;;;26.86;40.42;97702.09;6239897;28;20325;-46
2023/06/19 12:38:37;;;;;;;7.63;6.45;;;;;;;26.73;44.33;97674.00;6239103;28;20241;-47
2023/06/19 12:41:39;;;;;;;7.45;6.57;;;;;;;27.05;41.27;97712.41;6239436;28;20372;-46
2023/06/19 12:44:44;;;;;;;7.80;6.22;;;;;;;27.17;40.59;97706.88;6239928;28;20258;-46
2023/06/19 12:47:46;;;;;;;6.72;6.07;;;;;;;27.06;41.61;97691.31;6239680;28;20365;-45
2023/06/19 12:50:48;;;;;;;6.78;6.13;;;;;;;27.19;41.14;97698.31;6238786;28;20322;-45
2023/06/19 12:53:50;;;;;;;7.07;6.38;;;;;;;27.13;41.49;97692.31;6235503;28;20242;-46
2023/06/19 12:56:52;;;;;;;9.18;7.28;;;;;;;26.95;40.23;97702.75;6240415;28;20239;-47
2023/06/19 12:59:55;;;;;;;6.88;6.28;;;;;;;26.92;39.33;97699.91;6237953;28;20365;-47
2023/06/19 13:02:57;;;;;;;7.25;6.57;;;;;;;26.82;39.72;97697.69;6240148;28;20231;-47
2023/06/19 13:05:59;;;;;;;7.35;6.22;;;;;;;26.87;38.42;97697.44;6237894;28;20888;-45
2023/06/19 13:09:02;;;;;;;9.32;6.00;;;;;;;26.73;40.25;97693.16;6237590;28;20227;-46
2023/06/19 13:12:07;;;;;;;6.97;5.93;;;;;;;26.66;40.30;97703.09;6235421;28;20222;-46
2023/06/19 13:15:10;;;;;;;6.82;6.13;;;;;;;26.53;42.26;97698.81;6237667;28;20231;-47
2023/06/19 13:18:12;;;;;;;7.15;6.45;;;;;;;26.55;39.41;97697.31;6234883;28;20630;-46
2023/06/19 13:21:15;;;;;;;9.65;6.80;;;;;;;26.54;40.33;97684.78;6242458;28;20220;-46
2023/06/19 13:24:17;;;;;;;7.18;6.47;;;;;;;26.65;41.08;97691.38;6237401;28;20301;-46
2023/06/19 13:27:20;;;;;;;6.78;6.07;;;;;;;26.67;42.22;97688.28;6238436;28;20215;-46
2023/06/19 13:30:22;;;;;;;6.38;5.78;;;;;;;26.70;43.88;97687.59;6241369;28;20310;-45
2023/06/19 13:33:25;;;;;;;8.35;6.82;;;;;;;26.89;38.46;97684.19;6224715;28;20704;-45
2023/06/19 13:36:27;;;;;;;7.22;6.53;;;;;;;26.95;43.35;97686.34;6243554;28;20231;-46
2023/06/19 13:39:30;;;;;;;7.28;6.55;;;;;;;27.04;48.26;97696.31;6244388;28;20309;-46
2023/06/19 13:42:33;;;;;;;7.22;6.53;;;;;;;27.00;47.81;97698.97;6243936;28;20231;-45
2023/06/19 13:45:35;;;;;;;6.40;5.88;;;;;;;26.66;48.21;97643.75;6244153;28;20231;-48
2023/06/19 13:48:38;;;;;;;8.15;6.18;;;;;;;27.01;43.55;97697.81;6244180;28;20223;-46
2023/06/19 13:51:41;;;;;;;7.80;6.60;;;;;;;26.97;41.16;97689.53;6241826;28;20223;-46
2023/06/19 13:54:43;;;;;;;7.22;6.53;;;;;;;26.88;44.90;97683.41;6240534;28;20222;-47
2023/06/19 13:57:46;;;;;;;6.75;5.75;;;;;;;27.11;39.51;97694.63;6242431;28;20306;-47
2023/06/19 14:00:48;;;;;;;6.97;6.28;;;;;;;27.14;38.76;97704.03;6242666;28;20339;-47
2023/06/19 14:03:51;;;;;;;6.57;5.90;;;;;;;27.06;41.40;97694.84;6208509;28;20223;-47
2023/06/19 14:06:54;;;;;;;7.25;5.97;;;;;;;26.84;41.82;97685.25;6244577;28;20220;-47
2023/06/19 14:09:56;;;;;;;7.13;6.18;;;;;;;26.98;38.69;97698.50;6245549;28;20246;-48
2023/06/19 14:12:59;;;;;;;7.55;6.10;;;;;;;26.89;41.52;97698.66;6245278;28;20778;-47
2023/06/19 14:16:01;;;;;;;6.95;6.25;;;;;;;26.81;40.71;97688.69;6239928;28;20314;-45
2023/06/19 14:19:04;;;;;;;7.63;6.15;;;;;;;26.70;42.76;97691.13;6241069;28;20293;-46
2023/06/19 14:22:06;;;;;;;8.10;6.63;;;;;;;26.54;37.95;97649.25;6228546;28;20752;-46